createdAt,value
2023-01-06T00:00:01.875Z,97363.47
2023-01-06T00:05:42.465Z,97375.03
2023-01-06T00:11:08.096Z,97369.03
2023-01-06T00:16:29.433Z,97375.88
2023-01-06T00:21:50.561Z,97382.75
2023-01-06T00:27:11.402Z,97380.16
2023-01-06T00:32:32.308Z,97377.88
2023-01-06T00:37:53.148Z,97375.78
2023-01-06T00:43:14.471Z,97383.75
2023-01-06T00:48:35.268Z,97376.22
2023-01-06T00:53:58.757Z,97377.75
2023-01-06T00:59:23.187Z,97378.50
2023-01-06T01:04:43.963Z,97388.44
2023-01-06T01:10:05.034Z,97385.72
2023-01-06T01:15:25.868Z,97375.34
2023-01-06T01:20:47.391Z,97375.78
2023-01-06T01:26:08.281Z,97371.31
2023-01-06T01:31:30.396Z,97371.84
2023-01-06T01:36:52.921Z,97374.63
2023-01-06T01:42:18.574Z,97375.88
2023-01-06T01:47:46.474Z,97374.31
2023-01-06T01:53:34.067Z,97371.94
2023-01-06T01:59:06.711Z,97367.88
2023-01-06T02:04:28.470Z,97363.63
2023-01-06T02:10:15.956Z,97357.31
2023-01-06T02:15:36.863Z,97358.25
2023-01-06T02:21:14.669Z,97355.97
2023-01-06T02:27:31.569Z,97346.13
2023-01-06T02:33:17.425Z,97345.28
2023-01-06T02:38:47.922Z,97338.84
2023-01-06T02:44:11.273Z,97349.53
2023-01-06T02:49:44.130Z,97335.75
2023-01-06T02:55:11.700Z,97337.00
2023-01-06T03:00:35.961Z,97329.72
2023-01-06T03:06:05.754Z,97338.44
2023-01-06T03:11:29.487Z,97327.13
2023-01-06T03:16:50.462Z,97323.78
2023-01-06T03:22:13.062Z,97318.59
2023-01-06T03:27:36.010Z,97318.28
2023-01-06T03:33:07.694Z,97319.91
2023-01-06T03:38:43.392Z,97325.00
2023-01-06T03:44:14.380Z,97313.69
2023-01-06T03:50:01.149Z,97317.22
2023-01-06T03:55:30.133Z,97315.13
2023-01-06T04:00:52.315Z,97317.47
2023-01-06T04:06:13.641Z,97314.63
2023-01-06T04:11:53.221Z,97312.53
2023-01-06T04:17:13.827Z,97317.66
2023-01-06T04:22:35.614Z,97316.69
2023-01-06T04:27:57.714Z,97306.00
2023-01-06T04:33:18.427Z,97301.22
2023-01-06T04:38:42.193Z,97301.22
2023-01-06T04:44:02.684Z,97296.03
2023-01-06T04:49:23.438Z,97293.56
2023-01-06T04:54:44.048Z,97305.28
2023-01-06T05:00:05.742Z,97297.72
2023-01-06T05:05:26.674Z,97304.69
2023-01-06T05:10:47.303Z,97304.91
2023-01-06T05:16:14.633Z,97300.97
2023-01-06T05:21:35.290Z,97299.03
2023-01-06T05:26:55.891Z,97297.69
2023-01-06T05:32:16.608Z,97296.09
2023-01-06T05:37:37.142Z,97297.34
2023-01-06T05:42:58.324Z,97299.13
2023-01-06T05:48:19.592Z,97298.50
2023-01-06T05:53:42.756Z,97289.06
2023-01-06T05:59:03.850Z,97295.28
2023-01-06T06:04:24.662Z,97299.22
2023-01-06T06:09:45.385Z,97293.31
2023-01-06T06:15:06.581Z,97291.72
2023-01-06T06:20:27.367Z,97280.28
2023-01-06T06:25:50.294Z,97282.47
2023-01-06T06:31:17.798Z,97278.13
2023-01-06T06:36:38.567Z,97271.94
2023-01-06T06:41:59.381Z,97267.75
2023-01-06T06:47:20.102Z,97264.19
2023-01-06T06:52:40.698Z,97269.81
2023-01-06T06:58:01.741Z,97266.72
2023-01-06T07:03:23.114Z,97265.84
2023-01-06T07:08:45.453Z,97261.38
2023-01-06T07:14:06.260Z,97259.31
2023-01-06T07:19:26.923Z,97264.59
2023-01-06T07:24:47.746Z,97274.25
2023-01-06T07:30:09.261Z,97278.06
2023-01-06T07:35:30.558Z,97285.97
2023-01-06T07:40:52.072Z,97282.31
2023-01-06T07:46:12.819Z,97276.00
2023-01-06T07:51:33.523Z,97283.25
2023-01-06T07:56:54.200Z,97272.47
2023-01-06T08:02:14.982Z,97273.69
2023-01-06T08:07:35.693Z,97266.44
2023-01-06T08:12:56.446Z,97265.09
2023-01-06T08:18:17.248Z,97281.81
2023-01-06T08:23:38.589Z,97271.09
2023-01-06T08:28:59.204Z,97275.56
2023-01-06T08:34:20.265Z,97276.50
2023-01-06T08:39:41.004Z,97268.81
2023-01-06T08:45:01.787Z,97262.97
2023-01-06T08:50:22.529Z,97264.31
2023-01-06T08:55:43.608Z,97259.03
2023-01-06T09:01:04.634Z,97252.59
2023-01-06T09:06:25.944Z,97257.22
2023-01-06T09:11:46.859Z,97250.66
2023-01-06T09:17:07.652Z,97262.28
2023-01-06T09:22:28.747Z,97262.91
2023-01-06T09:27:49.527Z,97268.72
2023-01-06T09:33:10.293Z,97268.72
2023-01-06T09:38:31.005Z,97268.06
2023-01-06T09:43:58.634Z,97272.72
2023-01-06T09:49:49.734Z,97269.44
2023-01-06T09:55:26.068Z,97263.69
2023-01-06T10:00:53.866Z,97252.94
2023-01-06T10:06:41.659Z,97242.09
2023-01-06T10:12:31.928Z,97250.28
2023-01-06T10:17:56.989Z,97247.69
2023-01-06T10:23:45.724Z,97240.84
2023-01-06T10:29:15.132Z,97230.00
2023-01-06T10:34:36.210Z,97235.66
2023-01-06T10:40:13.244Z,97233.56
2023-01-06T10:45:39.092Z,97224.13
2023-01-06T10:51:24.045Z,97206.44
2023-01-06T10:56:59.229Z,97190.28
2023-01-06T11:02:23.975Z,97184.88
2023-01-06T11:08:11.627Z,97182.84
2023-01-06T11:13:36.652Z,97178.09
2023-01-06T11:19:00.933Z,97176.44
2023-01-06T11:24:25.385Z,97171.06
2023-01-06T11:29:48.684Z,97164.91
2023-01-06T11:35:19.994Z,97155.94
2023-01-06T11:40:43.604Z,97137.28
2023-01-06T11:46:09.191Z,97134.91
2023-01-06T11:51:48.207Z,97120.59
2023-01-06T11:57:23.404Z,97111.50
2023-01-06T12:03:03.530Z,97103.69
2023-01-06T12:08:29.594Z,97106.53
2023-01-06T12:14:08.828Z,97096.31
2023-01-06T12:19:45.576Z,97087.72
2023-01-06T12:25:15.485Z,97074.34
2023-01-06T12:30:51.278Z,97094.06
2023-01-06T12:36:20.375Z,97082.47
2023-01-06T12:41:53.203Z,97079.72
2023-01-06T12:47:25.268Z,97085.53
2023-01-06T12:52:52.047Z,97089.75
2023-01-06T12:58:25.054Z,97085.00
2023-01-06T13:03:57.828Z,97088.63
2023-01-06T13:09:36.279Z,97098.09
2023-01-06T13:15:23.439Z,97083.94
2023-01-06T13:20:50.569Z,97068.44
2023-01-06T13:26:46.961Z,97080.47
2023-01-06T13:32:40.060Z,97084.06
2023-01-06T13:38:18.175Z,97074.47
2023-01-06T13:43:39.469Z,97070.22
2023-01-06T13:49:04.169Z,97059.81
2023-01-06T13:54:40.484Z,97058.72
2023-01-06T14:00:01.038Z,97069.03
2023-01-06T14:05:22.039Z,97081.78
2023-01-06T14:10:46.732Z,97082.34
2023-01-06T14:16:13.024Z,97085.78
2023-01-06T14:21:33.946Z,97097.97
2023-01-06T14:27:07.165Z,97093.00
2023-01-06T14:32:27.823Z,97099.16
2023-01-06T14:38:00.499Z,97094.09
2023-01-06T14:43:42.616Z,97104.50
2023-01-06T14:49:06.386Z,97102.00
2023-01-06T14:54:34.152Z,97101.19
2023-01-06T15:00:29.887Z,97098.59
2023-01-06T15:05:50.620Z,97106.50
2023-01-06T15:11:28.417Z,97116.25
2023-01-06T15:16:49.271Z,97112.78
2023-01-06T15:22:11.135Z,97122.03
2023-01-06T15:27:31.993Z,97128.31
2023-01-06T15:32:54.542Z,97126.75
2023-01-06T15:38:28.528Z,97121.56
2023-01-06T15:43:49.671Z,97131.97
2023-01-06T15:49:51.566Z,97155.53
2023-01-06T15:55:24.461Z,97166.88
2023-01-06T16:00:59.441Z,97159.19
2023-01-06T16:06:31.633Z,97166.41
2023-01-06T16:12:15.975Z,97170.78
2023-01-06T16:17:46.062Z,97166.78
2023-01-06T16:23:07.023Z,97181.91
2023-01-06T16:28:28.075Z,97183.81
2023-01-06T16:33:49.119Z,97185.59
2023-01-06T16:39:09.934Z,97189.13
2023-01-06T16:44:32.359Z,97183.72
2023-01-06T16:49:53.530Z,97194.00
2023-01-06T16:55:18.979Z,97192.56
2023-01-06T17:00:40.720Z,97194.81
2023-01-06T17:06:01.949Z,97211.03
2023-01-06T17:11:26.622Z,97215.78
2023-01-06T17:16:48.790Z,97224.03
2023-01-06T17:22:28.291Z,97246.94
2023-01-06T17:27:49.152Z,97261.13
2023-01-06T17:33:12.157Z,97249.53
2023-01-06T17:38:34.029Z,97259.94
2023-01-06T17:43:55.051Z,97255.41
2023-01-06T17:49:15.806Z,97274.25
2023-01-06T17:54:55.046Z,97259.72
2023-01-06T18:00:37.397Z,97259.13
2023-01-06T18:06:26.261Z,97255.69
2023-01-06T18:11:52.671Z,97258.41
2023-01-06T18:17:25.331Z,97263.41
2023-01-06T18:22:46.278Z,97272.59
2023-01-06T18:28:15.691Z,97263.41
2023-01-06T18:33:36.663Z,97273.41
2023-01-06T18:39:00.441Z,97275.28
2023-01-06T18:44:21.521Z,97292.41
2023-01-06T18:49:42.906Z,97292.91
2023-01-06T18:55:25.824Z,97276.94
2023-01-06T19:00:54.103Z,97284.84
2023-01-06T19:06:15.070Z,97278.84
2023-01-06T19:11:37.105Z,97295.13
2023-01-06T19:16:59.326Z,97296.50
2023-01-06T19:22:29.609Z,97303.00
2023-01-06T19:27:54.503Z,97298.84
2023-01-06T19:33:37.085Z,97296.03
2023-01-06T19:39:09.285Z,97306.53
2023-01-06T19:44:33.592Z,97316.56
2023-01-06T19:50:02.025Z,97314.81
2023-01-06T19:55:24.391Z,97313.88
2023-01-06T20:00:50.070Z,97307.84
2023-01-06T20:06:13.647Z,97305.97
2023-01-06T20:11:34.411Z,97311.50
2023-01-06T20:16:55.387Z,97318.44
2023-01-06T20:22:17.536Z,97319.28
2023-01-06T20:27:38.143Z,97306.53
2023-01-06T20:32:59.519Z,97311.72
2023-01-06T20:38:20.212Z,97317.63
2023-01-06T20:43:41.144Z,97326.38
2023-01-06T20:49:01.794Z,97343.63
2023-01-06T20:54:23.651Z,97340.91
2023-01-06T20:59:44.353Z,97349.19
2023-01-06T21:05:07.103Z,97335.78
2023-01-06T21:10:28.067Z,97336.09
2023-01-06T21:15:49.008Z,97336.94
2023-01-06T21:21:10.008Z,97343.78
2023-01-06T21:26:30.659Z,97339.91
2023-01-06T21:31:51.438Z,97353.66
2023-01-06T21:37:12.164Z,97347.53
2023-01-06T21:42:51.341Z,97350.19
2023-01-06T21:48:13.196Z,97352.78
2023-01-06T21:53:34.856Z,97358.44
2023-01-06T21:58:56.363Z,97352.44
2023-01-06T22:04:17.305Z,97349.03
2023-01-06T22:09:41.127Z,97355.78
2023-01-06T22:15:02.101Z,97355.78
2023-01-06T22:20:23.284Z,97358.03
2023-01-06T22:25:44.043Z,97366.63
2023-01-06T22:31:05.315Z,97362.84
2023-01-06T22:36:26.329Z,97374.13
2023-01-06T22:41:47.356Z,97377.88
2023-01-06T22:47:08.446Z,97373.03
2023-01-06T22:52:29.253Z,97364.03
2023-01-06T22:57:50.065Z,97365.78
2023-01-06T23:03:10.824Z,97363.94
2023-01-06T23:08:34.729Z,97383.66
2023-01-06T23:13:58.943Z,97370.19
2023-01-06T23:19:19.974Z,97367.03
2023-01-06T23:24:40.567Z,97373.31
2023-01-06T23:30:01.242Z,97371.81
2023-01-06T23:35:21.993Z,97372.16
2023-01-06T23:40:42.720Z,97358.22
2023-01-06T23:46:12.212Z,97360.81
2023-01-06T23:51:33.341Z,97353.44
2023-01-06T23:56:54.267Z,97359.19
